Time;durP1;ratioP1;P1;durP2;ratioP2;P2;SDS_P1;SDS_P2;PMS_P1;PMS_P2;Temp;Humidity;BMP_temperature;BMP_pressure;BME280_temperature;BME280_humidity;BME280_pressure;Samples;Min_cycle;Max_cycle;Signal;HPM_P1;HPM_P2
2022/03/01 00:00:18;;;;;;;31.05;18.85;;;;;;;8.25;47.71;102134.88;5016680;28;20066;-67
2022/03/01 00:02:46;;;;;;;28.85;17.88;;;;;;;8.31;47.07;102131.94;5016913;28;20058;-67
2022/03/01 00:05:14;;;;;;;36.03;19.25;;;;;;;8.23;47.33;102132.38;5029663;28;20052;-68
2022/03/01 00:07:41;;;;;;;31.20;18.98;;;;;;;8.32;47.21;102122.59;5020010;28;20057;-67
2022/03/01 00:10:09;;;;;;;29.25;18.08;;;;;;;7.98;47.60;102133.00;5019055;28;20704;-67
2022/03/01 00:12:36;;;;;;;31.67;18.80;;;;;;;8.10;47.73;102130.09;5017295;28;20401;-66
2022/03/01 00:15:05;;;;;;;31.30;19.20;;;;;;;8.08;47.68;102131.44;5012962;28;20057;-67
2022/03/01 00:17:32;;;;;;;33.85;18.88;;;;;;;8.22;47.64;102132.63;5012020;28;20053;-67
2022/03/01 00:20:00;;;;;;;35.53;19.10;;;;;;;8.18;47.78;102129.59;5016869;28;20058;-67
2022/03/01 00:22:27;;;;;;;29.58;18.63;;;;;;;8.19;47.44;102136.75;5011364;28;20050;-67
2022/03/01 00:24:54;;;;;;;31.98;19.08;;;;;;;8.29;47.22;102133.28;5016592;28;20497;-67
2022/03/01 00:27:21;;;;;;;31.10;18.30;;;;;;;8.30;47.48;102127.50;5011591;28;20049;-67
2022/03/01 00:29:49;;;;;;;30.77;19.25;;;;;;;8.16;47.90;102118.03;5028249;28;20058;-67
2022/03/01 00:32:16;;;;;;;33.97;19.02;;;;;;;8.22;47.44;102108.75;5018136;28;20050;-67
2022/03/01 00:34:43;;;;;;;31.42;18.92;;;;;;;8.11;47.67;102111.72;5015544;28;20061;-67
2022/03/01 00:37:11;;;;;;;34.55;19.30;;;;;;;8.19;47.43;102112.03;5004912;28;20052;-67
2022/03/01 00:39:39;;;;;;;33.90;19.77;;;;;;;8.29;47.45;102108.56;5016993;28;20061;-67
2022/03/01 00:42:06;;;;;;;28.98;18.17;;;;;;;8.12;47.52;102113.34;5016771;28;20049;-67
2022/03/01 00:44:33;;;;;;;32.47;18.70;;;;;;;8.26;47.33;102114.59;5014508;28;20050;-66
2022/03/01 00:47:01;;;;;;;33.20;18.45;;;;;;;8.22;47.12;102111.50;5006981;28;20390;-67
2022/03/01 00:49:28;;;;;;;27.50;17.73;;;;;;;8.26;47.38;102120.91;5003784;28;20418;-66
2022/03/01 00:51:55;;;;;;;30.23;18.33;;;;;;;8.38;46.85;102120.72;5017395;28;20046;-66
2022/03/01 00:54:22;;;;;;;31.08;19.20;;;;;;;7.99;47.60;102125.59;5016543;28;20073;-67
2022/03/01 00:56:51;;;;;;;33.08;19.02;;;;;;;8.11;47.85;102125.44;5015722;28;20050;-67
2022/03/01 00:59:18;;;;;;;29.80;18.77;;;;;;;8.16;47.38;102125.47;5004123;28;20434;-67
2022/03/01 01:01:46;;;;;;;33.55;19.88;;;;;;;8.06;47.77;102128.94;5015074;28;20052;-66
2022/03/01 01:04:13;;;;;;;31.17;18.90;;;;;;;8.18;47.48;102129.59;5016276;28;20069;-66
2022/03/01 01:06:41;;;;;;;30.60;19.83;;;;;;;8.01;47.74;102128.91;5016656;28;20050;-67
2022/03/01 01:09:12;;;;;;;28.40;18.73;;;;;;;8.05;47.74;102116.34;5016383;28;20054;-67
2022/03/01 01:11:41;;;;;;;31.77;19.50;;;;;;;7.96;47.71;102109.66;5016845;28;20053;-66
2022/03/01 01:14:10;;;;;;;34.65;20.83;;;;;;;7.95;47.96;102105.25;5017120;28;20724;-67
2022/03/01 01:16:38;;;;;;;32.72;19.58;;;;;;;7.80;48.19;102100.50;5007933;28;20053;-67
2022/03/01 01:19:06;;;;;;;32.28;19.67;;;;;;;7.81;48.17;102104.06;5007258;28;20494;-67
2022/03/01 01:24:19;;;;;;;32.20;19.92;;;;;;;7.88;48.38;102112.88;5006590;28;20497;-67
2022/03/01 01:26:46;;;;;;;37.13;20.30;;;;;;;7.91;48.36;102110.44;5012812;28;20046;-68
2022/03/01 01:29:14;;;;;;;31.23;20.33;;;;;;;7.97;48.03;102111.31;5015184;28;20046;-68
2022/03/01 01:31:42;;;;;;;32.53;19.48;;;;;;;7.83;48.33;102099.97;5002683;28;20045;-67
2022/03/01 01:34:09;;;;;;;34.10;19.55;;;;;;;7.82;48.48;102098.31;5015753;28;20058;-68
2022/03/01 01:36:36;;;;;;;48.10;21.40;;;;;;;7.82;48.51;102100.22;5003115;28;20094;-67
2022/03/01 01:39:04;;;;;;;31.33;19.55;;;;;;;7.74;48.56;102098.78;5016166;28;20058;-66
2022/03/01 01:41:31;;;;;;;34.67;21.00;;;;;;;7.84;48.42;102107.13;5011752;28;20053;-67
2022/03/01 01:44:01;;;;;;;33.22;20.58;;;;;;;7.72;48.52;102102.88;5004241;28;20053;-67
2022/03/01 01:46:28;;;;;;;35.90;21.25;;;;;;;7.69;48.91;102097.91;5014688;28;20145;-66
2022/03/01 01:48:55;;;;;;;34.08;20.25;;;;;;;7.73;48.89;102101.78;5013425;28;20053;-67
2022/03/01 01:51:24;;;;;;;32.42;20.58;;;;;;;7.85;48.66;102103.28;5005696;28;20058;-67
2022/03/01 01:53:53;;;;;;;35.67;21.15;;;;;;;7.75;48.79;102116.91;5012885;28;20050;-66
2022/03/01 01:56:21;;;;;;;34.05;20.92;;;;;;;7.80;48.69;102113.38;5014387;28;20049;-66
2022/03/01 01:58:49;;;;;;;39.95;20.30;;;;;;;7.81;48.84;102107.63;5011191;28;20056;-67
2022/03/01 02:01:16;;;;;;;36.47;20.73;;;;;;;7.78;48.94;102110.06;5004390;28;20058;-68
2022/03/01 02:03:44;;;;;;;33.97;20.25;;;;;;;7.62;49.35;102120.06;5013864;28;20050;-66
2022/03/01 02:06:11;;;;;;;33.55;21.08;;;;;;;7.51;49.90;102115.59;5015617;28;20069;-67
2022/03/01 02:08:38;;;;;;;35.75;21.08;;;;;;;7.63;49.26;102099.78;5015443;28;20053;-68
2022/03/01 02:11:06;;;;;;;38.15;22.33;;;;;;;7.64;49.14;102103.34;5004112;28;20050;-66
2022/03/01 02:13:33;;;;;;;37.97;22.95;;;;;;;7.67;49.10;102100.91;5012689;28;20054;-66
2022/03/01 02:16:00;;;;;;;35.45;22.83;;;;;;;7.46;49.65;102106.47;5004358;28;20378;-68
2022/03/01 02:18:28;;;;;;;43.55;27.48;;;;;;;7.63;49.52;102104.44;5017068;28;20057;-66
2022/03/01 02:20:55;;;;;;;48.28;29.20;;;;;;;7.73;49.14;102107.25;5011135;28;20053;-67
2022/03/01 02:23:22;;;;;;;49.22;30.08;;;;;;;7.81;48.73;102101.31;5015038;28;20050;-66
2022/03/01 02:25:50;;;;;;;52.30;32.17;;;;;;;7.75;49.02;102102.34;5013922;28;20049;-67
2022/03/01 02:28:17;;;;;;;56.42;33.40;;;;;;;7.63;49.16;102097.06;5000809;28;20053;-66
2022/03/01 02:30:44;;;;;;;52.13;32.67;;;;;;;7.62;49.64;102097.28;5008442;28;20058;-67
2022/03/01 02:33:12;;;;;;;58.33;34.28;;;;;;;7.63;50.00;102096.22;5009699;28;20048;-67
2022/03/01 02:35:39;;;;;;;59.08;34.05;;;;;;;7.57;49.99;102098.06;5014471;28;20513;-67
2022/03/01 02:38:06;;;;;;;59.35;33.88;;;;;;;7.70;49.67;102099.56;5003981;28;20529;-67
2022/03/01 02:40:33;;;;;;;60.53;34.42;;;;;;;7.62;49.79;102100.84;5015288;28;20076;-66
2022/03/01 02:43:01;;;;;;;63.78;33.40;;;;;;;7.78;49.28;102101.81;5015474;28;20496;-67
2022/03/01 02:45:28;;;;;;;48.42;28.50;;;;;;;7.83;49.01;102096.38;5004576;28;20046;-67
2022/03/01 02:47:55;;;;;;;47.78;28.77;;;;;;;7.68;49.04;102099.84;5016173;28;20058;-67
2022/03/01 02:50:22;;;;;;;45.15;27.55;;;;;;;7.64;49.68;102100.59;5013881;28;20069;-67
2022/03/01 02:52:50;;;;;;;49.30;26.02;;;;;;;7.45;49.88;102110.28;5014480;28;20057;-66
2022/03/01 02:55:17;;;;;;;43.22;25.40;;;;;;;7.47;49.91;102105.38;5015233;28;20049;-67
2022/03/01 02:57:44;;;;;;;41.30;23.60;;;;;;;7.64;49.76;102108.81;5013942;28;20528;-67
2022/03/01 03:00:12;;;;;;;39.35;23.55;;;;;;;7.58;49.67;102105.19;5004550;28;20666;-67
2022/03/01 03:02:42;;;;;;;37.75;22.60;;;;;;;7.60;49.84;102102.22;5018963;28;20053;-67
2022/03/01 03:05:10;;;;;;;36.70;22.27;;;;;;;7.48;49.70;102113.34;5018790;28;20057;-67
2022/03/01 03:07:37;;;;;;;34.95;22.67;;;;;;;7.55;49.57;102111.22;5018625;28;20056;-67
2022/03/01 03:10:06;;;;;;;38.67;22.27;;;;;;;7.23;50.55;102113.09;5024980;28;20062;-67
2022/03/01 03:12:34;;;;;;;38.15;23.02;;;;;;;7.36;50.54;102106.34;5014393;28;20045;-66
2022/03/01 03:15:02;;;;;;;36.78;22.33;;;;;;;7.39;50.18;102109.41;5017355;28;20053;-67
2022/03/01 03:17:29;;;;;;;36.35;21.80;;;;;;;7.30;50.60;102107.41;5005824;28;20133;-67
2022/03/01 03:19:56;;;;;;;41.08;23.33;;;;;;;7.34;50.41;102111.28;5008285;28;20054;-67
2022/03/01 03:22:24;;;;;;;43.58;22.60;;;;;;;7.34;50.76;102108.53;5014062;28;20046;-67
2022/03/01 03:24:51;;;;;;;34.88;22.70;;;;;;;7.31;50.55;102109.03;4998859;28;20048;-67
2022/03/01 03:27:24;;;;;;;36.03;22.27;;;;;;;7.49;50.51;102098.56;5017519;28;20058;-66
2022/03/01 03:29:52;;;;;;;40.35;22.73;;;;;;;7.37;50.68;102100.63;5020920;28;20046;-66
2022/03/01 03:32:19;;;;;;;38.85;23.67;;;;;;;7.46;50.58;102107.28;5023356;28;20041;-67
2022/03/01 03:34:48;;;;;;;37.97;22.70;;;;;;;7.34;50.58;102094.84;5001284;28;20054;-66
2022/03/01 03:37:16;;;;;;;38.50;23.52;;;;;;;7.38;50.64;102095.97;5016644;28;20046;-66
2022/03/01 03:39:43;;;;;;;39.03;22.60;;;;;;;7.42;50.64;102095.19;5017088;28;20497;-66
2022/03/01 03:42:10;;;;;;;37.40;23.08;;;;;;;7.31;50.86;102104.38;5018124;28;20061;-66
2022/03/01 03:44:39;;;;;;;39.53;22.95;;;;;;;7.24;50.88;102094.72;5017351;28;20122;-67
2022/03/01 03:47:07;;;;;;;35.00;22.45;;;;;;;7.46;50.60;102092.75;5006904;28;20050;-67
2022/03/01 03:49:35;;;;;;;35.80;22.73;;;;;;;7.45;50.59;102094.66;5014200;28;20061;-67
2022/03/01 03:52:07;;;;;;;36.10;23.52;;;;;;;7.60;50.06;102085.78;5003444;28;20050;-67
2022/03/01 03:54:34;;;;;;;37.03;22.23;;;;;;;7.59;50.04;102097.81;5000932;28;20061;-66
2022/03/01 03:57:08;;;;;;;36.90;22.10;;;;;;;7.31;51.03;102093.44;5018219;28;20050;-66
2022/03/01 03:59:36;;;;;;;33.42;21.23;;;;;;;7.41;50.88;102092.72;5013166;28;20054;-66
2022/03/01 04:02:05;;;;;;;37.60;21.73;;;;;;;7.41;50.83;102092.72;5008946;28;20046;-67
2022/03/01 04:04:33;;;;;;;34.58;22.67;;;;;;;7.59;50.01;102084.09;5003778;28;20046;-66
2022/03/01 04:07:00;;;;;;;34.53;22.45;;;;;;;7.30;50.53;102088.22;5017566;28;20046;-65
2022/03/01 04:09:28;;;;;;;38.08;22.63;;;;;;;7.47;50.80;102073.31;5017665;28;20053;-66
2022/03/01 04:11:55;;;;;;;38.60;24.00;;;;;;;7.34;50.71;102081.13;5016185;28;20056;-66
2022/03/01 04:14:23;;;;;;;34.63;21.73;;;;;;;7.39;50.71;102068.28;5011031;28;20054;-66
2022/03/01 04:16:50;;;;;;;34.42;21.88;;;;;;;7.27;50.85;102073.09;5011920;28;20062;-65
2022/03/01 04:19:17;;;;;;;43.03;22.77;;;;;;;7.23;51.28;102077.47;5017665;28;20042;-66
2022/03/01 04:21:44;;;;;;;38.63;22.45;;;;;;;7.01;52.17;102084.06;5015897;28;20050;-67
2022/03/01 04:24:12;;;;;;;37.85;21.55;;;;;;;7.00;52.12;102090.59;5020294;28;20050;-67
2022/03/01 04:26:40;;;;;;;37.17;22.80;;;;;;;7.02;52.73;102083.81;5017911;28;20058;-67
2022/03/01 04:29:07;;;;;;;36.08;21.73;;;;;;;6.81;53.30;102092.84;5017635;28;20054;-66
2022/03/01 04:31:34;;;;;;;36.72;23.13;;;;;;;6.81;53.11;102093.69;5015731;28;20053;-67
2022/03/01 04:34:02;;;;;;;38.80;22.95;;;;;;;6.66;53.63;102093.47;5006948;28;20050;-67
2022/03/01 04:36:29;;;;;;;36.15;22.08;;;;;;;6.58;54.17;102093.94;5019577;28;20054;-67
2022/03/01 04:38:56;;;;;;;36.88;22.13;;;;;;;6.80;53.32;102082.97;5015915;28;20060;-67
2022/03/01 04:41:24;;;;;;;38.03;23.08;;;;;;;6.93;53.50;102084.50;5019127;28;20058;-66
2022/03/01 04:43:51;;;;;;;38.28;23.17;;;;;;;6.99;53.51;102091.69;5019844;28;20056;-66
2022/03/01 04:46:18;;;;;;;37.55;23.48;;;;;;;6.87;53.53;102097.28;5017427;28;20053;-65
2022/03/01 04:48:46;;;;;;;38.22;23.05;;;;;;;6.73;54.21;102096.84;5013951;28;20065;-64
2022/03/01 04:51:14;;;;;;;41.30;22.70;;;;;;;6.90;53.54;102091.34;5017090;28;20053;-64
2022/03/01 04:53:41;;;;;;;36.40;22.77;;;;;;;6.89;53.90;102091.59;5013002;28;20054;-64
2022/03/01 04:56:08;;;;;;;38.67;23.10;;;;;;;6.85;53.74;102094.00;5019148;28;20046;-65
2022/03/01 04:58:35;;;;;;;36.40;23.27;;;;;;;6.96;53.60;102098.50;5014226;28;20065;-63
2022/03/01 05:01:03;;;;;;;41.20;23.88;;;;;;;7.34;52.58;102086.63;5016898;28;20058;-64
2022/03/01 05:03:31;;;;;;;40.75;22.67;;;;;;;7.14;52.96;102089.97;5016214;28;20054;-63
2022/03/01 05:05:58;;;;;;;37.15;22.83;;;;;;;7.25;53.15;102085.41;5015165;28;20506;-64
2022/03/01 05:08:30;;;;;;;41.03;22.65;;;;;;;7.19;53.20;102081.78;5011373;28;20050;-64
2022/03/01 05:10:58;;;;;;;37.92;22.83;;;;;;;7.21;53.25;102082.38;5009644;28;20057;-64
2022/03/01 05:13:25;;;;;;;40.00;23.73;;;;;;;7.06;53.54;102079.44;5011010;28;20058;-65
2022/03/01 05:15:53;;;;;;;37.53;23.58;;;;;;;6.98;53.46;102081.81;5009153;28;20054;-65
2022/03/01 05:18:23;;;;;;;37.08;21.77;;;;;;;7.23;53.16;102071.97;5003353;28;20046;-64
2022/03/01 05:20:51;;;;;;;;;;;;;;;7.02;53.13;102078.31;5016613;28;20053;-64
2022/03/01 05:23:18;;;;;;;37.65;22.73;;;;;;;6.96;53.68;102079.34;5010912;28;20274;-64
2022/03/01 05:25:46;;;;;;;35.22;21.95;;;;;;;7.24;53.09;102087.31;5001053;28;20065;-64
2022/03/01 05:28:13;;;;;;;38.28;23.92;;;;;;;7.06;53.37;102087.66;4996652;28;20054;-64
2022/03/01 05:30:40;;;;;;;37.13;22.45;;;;;;;7.08;53.30;102082.75;5008448;28;20062;-64
2022/03/01 05:33:08;;;;;;;41.70;22.65;;;;;;;7.00;53.54;102085.13;5010205;28;20046;-64
2022/03/01 05:35:35;;;;;;;41.85;23.33;;;;;;;7.06;53.73;102078.63;5016027;28;20050;-63
2022/03/01 05:38:03;;;;;;;32.25;22.38;;;;;;;7.28;52.77;102077.50;5014703;28;20089;-64
2022/03/01 05:40:31;;;;;;;35.97;23.20;;;;;;;7.13;53.09;102080.06;5003460;28;20058;-63
2022/03/01 05:42:59;;;;;;;38.22;22.17;;;;;;;7.14;53.43;102072.69;4998200;28;20049;-63
2022/03/01 05:45:27;;;;;;;38.33;22.33;;;;;;;7.14;53.05;102078.16;5014701;28;20559;-66
2022/03/01 05:47:54;;;;;;;34.30;21.35;;;;;;;7.34;52.32;102070.97;5013954;28;20049;-65
2022/03/01 05:50:22;;;;;;;40.90;22.17;;;;;;;7.22;52.48;102067.56;5018943;28;20056;-68
2022/03/01 05:52:50;;;;;;;31.55;20.55;;;;;;;7.23;52.52;102076.63;5017691;28;20057;-67
2022/03/01 05:55:17;;;;;;;36.25;21.45;;;;;;;7.26;52.84;102067.88;5005905;28;20060;-67
2022/03/01 05:57:44;;;;;;;36.88;22.13;;;;;;;7.60;52.12;102064.66;5013230;28;20053;-66
2022/03/01 06:00:16;;;;;;;39.95;21.00;;;;;;;7.50;51.56;102059.06;5014893;28;20746;-66
2022/03/01 06:02:45;;;;;;;37.90;22.25;;;;;;;7.35;51.92;102075.41;5015435;28;20054;-66
2022/03/01 06:05:15;;;;;;;33.08;20.90;;;;;;;7.27;52.26;102069.56;5003793;28;20046;-66
2022/03/01 06:07:43;;;;;;;32.40;20.38;;;;;;;7.19;52.44;102062.63;5014047;28;20061;-67
2022/03/01 06:10:11;;;;;;;29.67;20.35;;;;;;;7.18;52.38;102071.94;5002726;28;20058;-67
2022/03/01 06:12:39;;;;;;;32.90;20.75;;;;;;;7.11;52.58;102068.56;4998315;28;20051;-68
2022/03/01 06:15:06;;;;;;;40.05;21.88;;;;;;;7.63;51.13;102063.31;5027198;28;20054;-67
2022/03/01 06:17:33;;;;;;;32.33;21.08;;;;;;;7.30;51.86;102074.50;5009967;28;20065;-67
2022/03/01 06:20:01;;;;;;;38.20;22.00;;;;;;;7.30;52.08;102077.25;5007046;28;20042;-67
2022/03/01 06:22:29;;;;;;;34.30;21.25;;;;;;;7.23;52.42;102080.19;5017066;28;20049;-68
2022/03/01 06:24:57;;;;;;;32.45;21.75;;;;;;;7.21;52.20;102079.63;5023857;28;20072;-68
2022/03/01 06:27:24;;;;;;;35.65;21.30;;;;;;;7.39;51.65;102090.22;5021322;28;20054;-69
2022/03/01 06:29:51;;;;;;;32.50;21.58;;;;;;;7.46;51.47;102090.84;5025725;28;20041;-68
2022/03/01 06:32:19;;;;;;;38.25;21.60;;;;;;;7.31;51.70;102092.59;5016357;28;20050;-68
2022/03/01 06:34:46;;;;;;;34.25;21.70;;;;;;;7.13;52.60;102098.44;5024823;28;20053;-67
2022/03/01 06:37:34;;;;;;;35.28;21.73;;;;;;;7.13;52.75;102106.66;5030075;28;20054;-67
2022/03/01 06:40:06;;;;;;;35.65;21.65;;;;;;;7.69;51.23;102097.91;5029842;28;20079;-68
2022/03/01 06:42:34;;;;;;;38.13;22.38;;;;;;;7.36;51.66;102100.88;5029614;28;20064;-67
2022/03/01 06:45:02;;;;;;;41.08;22.45;;;;;;;7.43;51.48;102112.44;5021490;28;20130;-67
2022/03/01 06:47:30;;;;;;;34.20;21.25;;;;;;;7.16;52.25;102111.63;5025623;28;20050;-67
2022/03/01 06:49:57;;;;;;;38.17;21.83;;;;;;;7.14;52.60;102111.03;5030099;28;20053;-68
2022/03/01 06:52:24;;;;;;;40.25;21.45;;;;;;;7.18;52.53;102117.69;5025165;28;20049;-65
2022/03/01 06:54:52;;;;;;;34.20;22.25;;;;;;;7.17;52.93;102116.00;5033206;28;20053;-65
2022/03/01 06:57:19;;;;;;;39.22;22.08;;;;;;;7.17;52.76;102113.25;5031254;28;20053;-64
2022/03/01 06:59:46;;;;;;;43.10;22.83;;;;;;;7.01;53.20;102114.19;5032563;28;20061;-64
2022/03/01 07:02:14;;;;;;;39.00;22.80;;;;;;;7.25;52.63;102115.56;5030995;28;20065;-64
2022/03/01 07:04:41;;;;;;;40.17;22.75;;;;;;;7.12;52.78;102121.44;5033064;28;20045;-65
2022/03/01 07:07:09;;;;;;;38.78;22.48;;;;;;;7.35;52.67;102121.97;5025885;28;20053;-64
2022/03/01 07:09:37;;;;;;;33.20;21.73;;;;;;;7.31;52.83;102128.22;5014952;28;20084;-64
2022/03/01 07:12:04;;;;;;;36.60;22.30;;;;;;;7.41;52.47;102123.69;5034654;28;20052;-64
2022/03/01 07:14:32;;;;;;;37.65;22.50;;;;;;;7.41;52.77;102120.13;5025338;28;20053;-65
2022/03/01 07:16:59;;;;;;;36.63;22.48;;;;;;;7.49;52.57;102130.63;5018198;28;20050;-65
2022/03/01 07:19:26;;;;;;;37.20;22.33;;;;;;;7.62;52.31;102132.94;5022242;28;20058;-65
2022/03/01 07:21:53;;;;;;;39.03;22.67;;;;;;;7.52;52.81;102121.88;5011006;28;20096;-65
2022/03/01 07:24:21;;;;;;;35.95;22.08;;;;;;;7.71;52.11;102125.88;5005166;28;20038;-63
2022/03/01 07:26:49;;;;;;;43.50;21.92;;;;;;;7.62;52.04;102132.94;5013266;28;20050;-65
2022/03/01 07:29:16;;;;;;;34.80;21.90;;;;;;;7.86;52.05;102124.13;5026737;28;20049;-65
2022/03/01 07:31:44;;;;;;;47.00;23.00;;;;;;;8.22;53.83;102124.41;5013364;28;20061;-64
2022/03/01 07:34:11;;;;;;;39.58;22.35;;;;;;;7.86;52.60;102124.13;5016115;28;20037;-65
2022/03/01 07:36:39;;;;;;;40.55;23.10;;;;;;;7.87;52.20;102123.03;5013389;28;20046;-64
2022/03/01 07:39:07;;;;;;;36.85;22.75;;;;;;;7.91;52.00;102128.84;5005154;28;20042;-66
2022/03/01 07:41:34;;;;;;;38.08;21.90;;;;;;;8.02;51.99;102124.25;5014868;28;20058;-63
2022/03/01 07:44:02;;;;;;;41.42;23.42;;;;;;;8.04;51.53;102125.63;5023781;28;20089;-64
2022/03/01 07:46:29;;;;;;;38.78;23.27;;;;;;;8.26;50.96;102126.41;5010021;28;20497;-64
2022/03/01 07:48:57;;;;;;;39.97;23.35;;;;;;;7.93;51.39;102129.41;5015285;28;20058;-66
2022/03/01 07:51:24;;;;;;;44.22;22.77;;;;;;;7.79;51.98;102122.69;5015125;28;20046;-64
2022/03/01 07:53:52;;;;;;;40.85;23.05;;;;;;;7.93;51.93;102123.91;5022398;28;20053;-64
2022/03/01 07:56:22;;;;;;;39.15;23.10;;;;;;;8.11;51.23;102115.25;5010976;28;20065;-66
2022/03/01 07:58:51;;;;;;;41.40;23.17;;;;;;;8.15;50.98;102115.56;5018577;28;20050;-64
2022/03/01 08:01:20;;;;;;;41.75;23.48;;;;;;;7.96;51.14;102112.41;5030975;28;20046;-64
2022/03/01 08:03:49;;;;;;;39.05;23.10;;;;;;;8.01;51.71;102115.19;5014496;28;20054;-64
2022/03/01 08:06:17;;;;;;;39.95;23.38;;;;;;;7.94;51.76;102125.56;5012786;28;20517;-62
2022/03/01 08:08:44;;;;;;;44.58;23.88;;;;;;;8.14;52.39;102125.75;5024574;28;20412;-63
2022/03/01 08:11:12;;;;;;;40.13;23.02;;;;;;;8.12;51.81;102125.16;5005833;28;20061;-63
2022/03/01 08:13:41;;;;;;;37.33;22.40;;;;;;;8.39;51.88;102125.09;5034929;28;20492;-63
2022/03/01 08:16:09;;;;;;;36.67;22.67;;;;;;;8.36;51.10;102133.88;5035286;28;20049;-64
2022/03/01 08:18:37;;;;;;;43.65;23.13;;;;;;;8.29;51.58;102125.03;5029129;28;20508;-63
2022/03/01 08:21:06;;;;;;;39.30;22.83;;;;;;;8.25;51.62;102127.47;5030201;28;20050;-64
2022/03/01 08:23:34;;;;;;;39.78;23.58;;;;;;;8.57;51.13;102132.91;5019338;28;20057;-65
2022/03/01 08:26:04;;;;;;;42.00;23.05;;;;;;;8.33;50.91;102134.41;5004807;28;20046;-64
2022/03/01 08:28:32;;;;;;;45.40;24.25;;;;;;;8.71;51.12;102129.44;5030114;28;20049;-64
2022/03/01 08:30:59;;;;;;;47.67;25.00;;;;;;;8.48;51.34;102118.84;5019246;28;20060;-64
2022/03/01 08:33:27;;;;;;;44.55;23.67;;;;;;;8.78;50.51;102116.28;5022703;28;20050;-64
2022/03/01 08:35:55;;;;;;;37.60;23.58;;;;;;;8.73;50.39;102130.00;5010712;28;20050;-65
2022/03/01 08:38:25;;;;;;;51.33;23.38;;;;;;;8.76;50.33;102129.47;5024215;28;20069;-63
2022/03/01 08:40:53;;;;;;;41.25;24.77;;;;;;;9.17;50.27;102124.13;5024877;28;20162;-65
2022/03/01 08:43:22;;;;;;;38.30;22.10;;;;;;;12.42;45.33;102108.47;5035511;28;20077;-66
2022/03/01 08:45:50;;;;;;;41.97;23.75;;;;;;;10.83;45.75;102124.97;5015474;28;20053;-64
2022/03/01 08:48:17;;;;;;;43.83;23.88;;;;;;;10.06;46.63;102126.19;5015855;28;20572;-66
2022/03/01 08:50:45;;;;;;;39.78;23.38;;;;;;;9.70;47.97;102134.69;5018914;28;20485;-65
2022/03/01 08:53:17;;;;;;;44.92;23.67;;;;;;;9.35;48.69;102132.69;5032431;28;20045;-66
2022/03/01 08:55:44;;;;;;;45.10;24.83;;;;;;;9.05;49.22;102141.66;5032048;28;20050;-66
2022/03/01 08:58:12;;;;;;;41.38;23.88;;;;;;;9.38;51.45;102134.09;4993070;28;20058;-66
2022/03/01 09:00:39;;;;;;;37.38;23.00;;;;;;;9.53;48.72;102142.38;5033445;28;20408;-66
2022/03/01 09:03:07;;;;;;;44.35;25.52;;;;;;;9.51;48.75;102144.56;5032365;28;20053;-66
2022/03/01 09:05:35;;;;;;;43.55;25.00;;;;;;;9.54;49.29;102138.50;5027075;28;20543;-66
2022/03/01 09:08:03;;;;;;;38.17;23.92;;;;;;;9.19;50.53;102149.44;5032605;28;20046;-65
2022/03/01 09:10:31;;;;;;;51.50;25.52;;;;;;;8.93;49.12;102151.22;5027425;28;20053;-66
2022/03/01 09:12:59;;;;;;;40.53;24.65;;;;;;;9.20;49.96;102140.06;5017283;28;20501;-66
2022/03/01 09:15:30;;;;;;;45.50;26.20;;;;;;;9.33;48.55;102140.38;5018745;28;20056;-65
2022/03/01 09:18:00;;;;;;;39.42;25.23;;;;;;;9.15;49.26;102145.56;5019236;28;20053;-66
2022/03/01 09:20:28;;;;;;;46.28;24.42;;;;;;;8.93;49.69;102141.06;5025576;28;20053;-66
2022/03/01 09:23:00;;;;;;;47.72;25.20;;;;;;;9.35;49.20;102135.44;5020053;28;20065;-66
2022/03/01 09:25:41;;;;;;;39.55;25.90;;;;;;;9.34;48.63;102135.72;5017621;28;20076;-65
2022/03/01 09:28:08;;;;;;;43.15;25.55;;;;;;;9.16;49.25;102133.47;5017363;28;20057;-63
2022/03/01 09:30:35;;;;;;;48.63;25.17;;;;;;;9.40;51.42;102126.38;5017844;28;20050;-65
2022/03/01 09:33:03;;;;;;;44.17;24.55;;;;;;;9.30;49.66;102126.34;5015921;28;20054;-66
2022/03/01 09:35:31;;;;;;;42.33;24.27;;;;;;;9.46;48.85;102125.31;5021029;28;20049;-64
2022/03/01 09:37:58;;;;;;;38.35;24.77;;;;;;;9.66;49.66;102120.66;5035260;28;20061;-65
2022/03/01 09:40:25;;;;;;;39.42;24.73;;;;;;;9.70;49.95;102120.94;5021792;28;20041;-63
2022/03/01 09:42:53;;;;;;;43.10;24.00;;;;;;;9.60;49.38;102112.69;5022851;28;20065;-64
2022/03/01 09:45:21;;;;;;;39.83;23.25;;;;;;;9.68;48.46;102117.63;5001005;28;20066;-66
2022/03/01 09:47:48;;;;;;;41.75;23.38;;;;;;;9.55;49.24;102112.69;5013674;28;20057;-65
2022/03/01 09:50:15;;;;;;;40.22;24.15;;;;;;;9.58;48.84;102120.38;5016882;28;20050;-64
2022/03/01 09:52:43;;;;;;;45.17;23.90;;;;;;;9.66;51.49;102130.84;5030778;28;20060;-64
2022/03/01 09:55:11;;;;;;;46.50;23.80;;;;;;;10.06;51.67;102128.09;5024745;28;20045;-64
2022/03/01 09:57:38;;;;;;;47.63;25.23;;;;;;;9.97;47.90;102127.84;5015480;28;20572;-65
2022/03/01 10:00:07;;;;;;;42.05;23.60;;;;;;;10.07;48.21;102136.13;5017160;28;20065;-64
2022/03/01 10:02:44;;;;;;;41.53;23.95;;;;;;;10.32;48.03;102142.72;5020894;28;20061;-65
2022/03/01 10:05:14;;;;;;;42.20;23.13;;;;;;;10.62;48.76;102137.16;5017359;28;20050;-64
2022/03/01 10:07:43;;;;;;;40.75;23.58;;;;;;;10.55;47.18;102139.41;5004623;28;20061;-64
2022/03/01 10:10:16;;;;;;;39.38;22.55;;;;;;;10.51;46.98;102132.78;4992890;28;20058;-65
2022/03/01 10:12:53;;;;;;;39.47;23.08;;;;;;;10.58;46.62;102138.84;5019805;28;20068;-65
2022/03/01 10:15:27;;;;;;;43.97;23.88;;;;;;;10.73;47.06;102142.38;5010539;28;20046;-65
2022/03/01 10:17:55;;;;;;;40.85;23.60;;;;;;;10.69;46.46;102143.19;5002752;28;20046;-66
2022/03/01 10:20:22;;;;;;;42.55;23.13;;;;;;;10.62;46.51;102148.19;5011350;28;20060;-64
2022/03/01 10:22:57;;;;;;;47.83;24.15;;;;;;;10.58;46.90;102147.09;5017032;28;20050;-64
2022/03/01 10:25:26;;;;;;;43.75;25.48;;;;;;;10.72;46.65;102140.72;4997377;28;20042;-62
2022/03/01 10:27:55;;;;;;;45.70;23.17;;;;;;;11.01;49.47;102129.88;5014625;28;20456;-63
2022/03/01 10:30:27;;;;;;;39.60;23.50;;;;;;;10.99;46.23;102121.06;5022179;28;20489;-65
2022/03/01 10:33:09;;;;;;;39.65;23.77;;;;;;;11.19;46.50;102121.78;5027083;28;20056;-64
2022/03/01 10:35:39;;;;;;;39.83;22.30;;;;;;;11.28;45.84;102108.22;5004486;28;20046;-63
2022/03/01 10:38:07;;;;;;;40.33;23.08;;;;;;;11.42;45.48;102108.44;5013252;28;20072;-64
2022/03/01 10:40:37;;;;;;;40.53;22.20;;;;;;;11.34;45.52;102107.94;5026417;28;20061;-64
2022/03/01 10:43:05;;;;;;;40.15;22.05;;;;;;;11.41;45.10;102110.38;5020531;28;20080;-61
2022/03/01 10:45:39;;;;;;;43.72;21.33;;;;;;;11.80;47.03;102111.22;5009566;28;20038;-64
2022/03/01 10:48:09;;;;;;;37.67;21.15;;;;;;;11.83;45.65;102116.19;5012058;28;20062;-62
2022/03/01 10:50:37;;;;;;;;;;;;;;;11.97;46.64;102113.59;5026140;28;20054;-61
2022/03/01 10:53:06;;;;;;;31.75;18.88;;;;;;;11.60;45.53;102110.50;5026320;28;19921;-63
2022/03/01 10:55:35;;;;;;;40.65;18.38;;;;;;;11.64;44.54;102109.69;5015143;28;20514;-63
2022/03/01 10:58:12;;;;;;;32.92;18.77;;;;;;;11.60;44.15;102105.00;5017400;28;20060;-64
2022/03/01 11:00:40;;;;;;;33.60;19.25;;;;;;;11.64;44.42;102100.56;5021132;28;20064;-62
2022/03/01 11:03:08;;;;;;;34.75;19.70;;;;;;;11.76;44.11;102099.13;5012221;28;20050;-65
2022/03/01 11:05:36;;;;;;;34.63;20.65;;;;;;;11.66;43.95;102098.38;5006911;28;20042;-62
2022/03/01 11:08:38;;;;;;;36.17;19.17;;;;;;;11.80;43.97;102093.84;5017901;28;20057;-63
2022/03/01 11:11:08;;;;;;;33.33;19.40;;;;;;;11.83;43.95;102093.25;5028041;28;20045;-62
2022/03/01 11:13:41;;;;;;;39.92;20.33;;;;;;;11.93;43.98;102090.41;5017353;28;20050;-63
2022/03/01 11:16:35;;;;;;;39.75;21.00;;;;;;;11.99;43.47;102078.22;5032992;28;20045;-65
2022/03/01 11:19:28;;;;;;;35.25;19.75;;;;;;;12.23;42.97;102090.16;5024235;28;20045;-65
2022/03/01 11:22:01;;;;;;;35.67;21.00;;;;;;;12.42;42.59;102082.75;5010776;28;20046;-62
2022/03/01 11:24:29;;;;;;;38.38;20.95;;;;;;;12.46;42.47;102079.09;5035482;28;20049;-64